Time;durP1;ratioP1;P1;durP2;ratioP2;P2;SDS_P1;SDS_P2;PMS_P1;PMS_P2;Temp;Humidity;BMP_temperature;BMP_pressure;BME280_temperature;BME280_humidity;BME280_pressure;Samples;Min_cycle;Max_cycle;Signal;HPM_P1;HPM_P2
2023/11/08 00:02:02;;;;;;;;;;;;;;;;;;6274354;28;19947;-82
2023/11/08 00:05:03;;;;;;;;;;;;;;;;;;6277626;28;19919;-81
2023/11/08 00:08:05;;;;;;;;;;;;;;;;;;6276640;28;19923;-86
2023/11/08 00:11:05;;;;;;;;;;;;;;;;;;6276481;28;19999;-82
2023/11/08 00:14:10;;;;;;;;;;;;;;;;;;6270402;28;19927;-81
2023/11/08 00:17:10;;;;;;;;;;;;;;;;;;6292286;28;20323;-82
2023/11/08 00:20:11;;;;;;;;;;;;;;;;;;6273604;28;19975;-81
2023/11/08 00:23:11;;;;;;;;;;;;;;;;;;6274355;28;20074;-81
2023/11/08 00:26:12;;;;;;;;;;;;;;;;;;6276258;28;19975;-84
2023/11/08 00:29:12;;;;;;;;;;;;;;;;;;6275632;28;20357;-81
2023/11/08 00:32:12;;;;;;;;;;;;;;;;;;6274290;28;20003;-81
2023/11/08 00:35:12;;;;;;;;;;;;;;;;;;6280400;28;19917;-82
2023/11/08 00:38:12;;;;;;;;;;;;;;;;;;6286742;28;20012;-87
2023/11/08 00:41:13;;;;;;;;;;;;;;;;;;6273918;28;19948;-81
2023/11/08 00:44:13;;;;;;;;;;;;;;;;;;6278517;28;19913;-82
2023/11/08 00:47:13;;;;;;;;;;;;;;;;;;6275984;28;20254;-83
2023/11/08 00:50:13;;;;;;;;;;;;;;;;;;6271612;28;20578;-85
2023/11/08 00:53:15;;;;;;;;;;;;;;;;;;6271660;28;19917;-83
2023/11/08 00:56:16;;;;;;;;;;;;;;;;;;6274860;28;20000;-81
2023/11/08 00:59:18;;;;;;;;;;;;;;;;;;6290086;28;19913;-81
2023/11/08 01:02:18;;;;;;;;;;;;;;;;;;6274369;28;19955;-81
2023/11/08 01:05:19;;;;;;;;;;;;;;;;;;6289083;28;19920;-87
2023/11/08 01:08:19;;;;;;;;;;;;;;;;;;6280970;28;20003;-81
2023/11/08 01:11:19;;;;;;;;;;;;;;;;;;6284383;28;19923;-81
2023/11/08 01:14:21;;;;;;;;;;;;;;;;;;6283020;28;20058;-84
2023/11/08 01:17:21;;;;;;;;;;;;;;;;;;6277048;28;19917;-81
2023/11/08 01:20:21;;;;;;;;;;;;;;;;;;6276688;28;20000;-87
2023/11/08 01:23:21;;;;;;;;;;;;;;;;;;6277178;28;19917;-87
2023/11/08 01:26:22;;;;;;;;;;;;;;;;;;6280193;28;20369;-90
2023/11/08 01:29:22;;;;;;;;;;;;;;;;;;6297240;28;19967;-87
2023/11/08 01:32:22;;;;;;;;;;;;;;;;;;6282090;28;20324;-87
2023/11/08 01:35:22;;;;;;;;;;;;;;;;;;6278456;28;19921;-87
2023/11/08 01:38:22;;;;;;;;;;;;;;;;;;6278535;28;19924;-89
2023/11/08 01:41:23;;;;;;;;;;;;;;;;;;6285524;28;20365;-87
2023/11/08 01:44:23;;;;;;;;;;;;;;;;;;6278827;28;19917;-88
2023/11/08 01:47:23;;;;;;;;;;;;;;;;;;6281416;28;19921;-88
2023/11/08 01:50:24;;;;;;;;;;;;;;;;;;6294063;28;20276;-88
2023/11/08 01:53:24;;;;;;;;;;;;;;;;;;6280311;28;19916;-87
2023/11/08 01:56:24;;;;;;;;;;;;;;;;;;6276629;28;19917;-87
2023/11/08 01:59:25;;;;;;;;;;;;;;;;;;6283667;28;19912;-87
2023/11/08 02:02:26;;;;;;;;;;;;;;;;;;6279263;28;19920;-88
2023/11/08 02:05:26;;;;;;;;;;;;;;;;;;6273966;28;19993;-88
2023/11/08 02:08:26;;;;;;;;;;;;;;;;;;6295682;28;19917;-87
2023/11/08 02:11:26;;;;;;;;;;;;;;;;;;6285796;28;19913;-89
2023/11/08 02:14:28;;;;;;;;;;;;;;;;;;6279311;28;20272;-88
2023/11/08 02:17:28;;;;;;;;;;;;;;;;;;6276341;28;20520;-86
2023/11/08 02:20:28;;;;;;;;;;;;;;;;;;6274520;28;19917;-87
2023/11/08 02:23:28;;;;;;;;;;;;;;;;;;6291951;28;19936;-87
2023/11/08 02:26:28;;;;;;;;;;;;;;;;;;6275280;28;20361;-87
2023/11/08 02:29:29;;;;;;;;;;;;;;;;;;6278220;28;20200;-88
2023/11/08 02:32:29;;;;;;;;;;;;;;;;;;6277612;28;19924;-87
2023/11/08 02:35:29;;;;;;;;;;;;;;;;;;6271856;28;20015;-88
2023/11/08 02:38:29;;;;;;;;;;;;;;;;;;6276837;28;19925;-87
2023/11/08 02:41:29;;;;;;;;;;;;;;;;;;6279416;28;20264;-88
2023/11/08 02:44:31;;;;;;;;;;;;;;;;;;6272540;28;19986;-88
2023/11/08 02:47:31;;;;;;;;;;;;;;;;;;6277587;28;20357;-87
2023/11/08 02:50:31;;;;;;;;;;;;;;;;;;6274044;28;19978;-87
2023/11/08 02:53:31;;;;;;;;;;;;;;;;;;6271064;28;19963;-87
2023/11/08 02:56:31;;;;;;;;;;;;;;;;;;6272403;28;20362;-87
2023/11/08 02:59:31;;;;;;;;;;;;;;;;;;6273854;28;19924;-87
2023/11/08 03:02:33;;;;;;;;;;;;;;;;;;6274534;28;19923;-86
2023/11/08 03:05:33;;;;;;;;;;;;;;;;;;6275305;28;20253;-86
2023/11/08 03:08:33;;;;;;;;;;;;;;;;;;6267062;28;19917;-89
2023/11/08 03:11:35;;;;;;;;;;;;;;;;;;6275535;28;19956;-87
2023/11/08 03:14:36;;;;;;;;;;;;;;;;;;6274659;28;20251;-87
2023/11/08 03:17:36;;;;;;;;;;;;;;;;;;6281741;28;19917;-87
2023/11/08 03:20:36;;;;;;;;;;;;;;;;;;6287077;28;19913;-87
2023/11/08 03:23:37;;;;;;;;;;;;;;;;;;6273596;28;20289;-90
2023/11/08 03:26:38;;;;;;;;;;;;;;;;;;6275618;28;19919;-86
2023/11/08 03:29:38;;;;;;;;;;;;;;;;;;6273116;28;19913;-86
2023/11/08 03:32:38;;;;;;;;;;;;;;;;;;6294088;28;19964;-86
2023/11/08 03:35:38;;;;;;;;;;;;;;;;;;6276096;28;20262;-87
2023/11/08 03:38:38;;;;;;;;;;;;;;;;;;6288868;28;20327;-81
2023/11/08 03:41:39;;;;;;;;;;;;;;;;;;6274722;28;20282;-83
2023/11/08 03:44:39;;;;;;;;;;;;;;;;;;6275853;28;19970;-81
2023/11/08 03:47:39;;;;;;;;;;;;;;;;;;6274973;28;20019;-83
2023/11/08 03:50:39;;;;;;;;;;;;;;;;;;6270360;28;19921;-81
2023/11/08 03:53:39;;;;;;;;;;;;;;;;;;6274102;28;19921;-82
2023/11/08 03:56:39;;;;;;;;;;;;;;;;;;6273566;28;19960;-82
2023/11/08 03:59:39;;;;;;;;;;;;;;;;;;6273714;28;20023;-81
2023/11/08 04:02:40;;;;;;;;;;;;;;;;;;6291182;28;19920;-81
2023/11/08 04:05:40;;;;;;;;;;;;;;;;;;6274665;28;20657;-83
2023/11/08 04:08:40;;;;;;;;;;;;;;;;;;6271534;28;19917;-81
2023/11/08 04:11:40;;;;;;;;;;;;;;;;;;6278156;28;19921;-82
2023/11/08 04:14:40;;;;;;;;;;;;;;;;;;6281964;28;20008;-81
2023/11/08 04:17:40;;;;;;;;;;;;;;;;;;6289557;28;19920;-80
2023/11/08 04:20:42;;;;;;;;;;;;;;;;;;6271578;28;19936;-81
2023/11/08 04:23:42;;;;;;;;;;;;;;;;;;6273960;28;19916;-83
2023/11/08 04:26:43;;;;;;;;;;;;;;;;;;6271391;28;19924;-83
2023/11/08 04:29:43;;;;;;;;;;;;;;;;;;6271358;28;20288;-82
2023/11/08 04:32:44;;;;;;;;;;;;;;;;;;6274910;28;19928;-82
2023/11/08 04:35:44;;;;;;;;;;;;;;;;;;6269450;28;20376;-82
2023/11/08 04:38:45;;;;;;;;;;;;;;;;;;6272274;28;20305;-81
2023/11/08 04:41:45;;;;;;;;;;;;;;;;;;6274712;28;19921;-81
2023/11/08 04:44:46;;;;;;;;;;;;;;;;;;6293992;28;19967;-83
2023/11/08 04:47:46;;;;;;;;;;;;;;;;;;6277824;28;20389;-82
2023/11/08 04:50:46;;;;;;;;;;;;;;;;;;6280510;28;19912;-81
2023/11/08 04:53:46;;;;;;;;;;;;;;;;;;6280919;28;19920;-81
2023/11/08 04:56:47;;;;;;;;;;;;;;;;;;6296548;28;19917;-81
2023/11/08 04:59:47;;;;;;;;;;;;;;;;;;6277827;28;19946;-84
2023/11/08 05:02:47;;;;;;;;;;;;;;;;;;6274916;28;20301;-81
2023/11/08 05:05:48;;;;;;;;;;;;;;;;;;6273406;28;20357;-84
2023/11/08 05:08:48;;;;;;;;;;;;;;;;;;6276147;28;19934;-81
2023/11/08 05:11:49;;;;;;;;;;;;;;;;;;6280068;28;19912;-81
2023/11/08 05:14:49;;;;;;;;;;;;;;;;;;6279130;28;19921;-82
2023/11/08 05:17:50;;;;;;;;;;;;;;;;;;6274337;28;20008;-81
2023/11/08 05:20:50;;;;;;;;;;;;;;;;;;6280078;28;19924;-80
2023/11/08 05:23:50;;;;;;;;;;;;;;;;;;6274843;28;20275;-81
2023/11/08 05:26:50;;;;;;;;;;;;;;;;;;6279660;28;19955;-87
2023/11/08 05:29:51;;;;;;;;;;;;;;;;;;6282333;28;19913;-81
2023/11/08 05:32:52;;;;;;;;;;;;;;;;;;6276175;28;20357;-81
2023/11/08 05:35:52;;;;;;;;;;;;;;;;;;6296348;28;19981;-81
2023/11/08 05:38:52;;;;;;;;;;;;;;;;;;6300373;28;19969;-80
2023/11/08 05:41:53;;;;;;;;;;;;;;;;;;6291125;28;19913;-81
2023/11/08 05:44:57;;;;;;;;;;;;;;;;;;6292664;28;19913;-81
2023/11/08 05:47:57;;;;;;;;;;;;;;;;;;6295159;28;19915;-81
2023/11/08 05:50:57;;;;;;;;;;;;;;;;;;6275871;28;19912;-81
2023/11/08 05:53:57;;;;;;;;;;;;;;;;;;6291891;28;19917;-80
2023/11/08 05:56:57;;;;;;;;;;;;;;;;;;6322488;28;20289;-80
2023/11/08 05:59:57;;;;;;;;;;;;;;;;;;6291179;28;19913;-80
2023/11/08 06:02:57;;;;;;;;;;;;;;;;;;6290141;28;19912;-80
2023/11/08 06:05:58;;;;;;;;;;;;;;;;;;6289015;28;19913;-80
2023/11/08 06:08:58;;;;;;;;;;;;;;;;;;6297111;28;19915;-80
2023/11/08 06:11:58;;;;;;;;;;;;;;;;;;6286562;28;20001;-80
2023/11/08 06:14:59;;;;;;;;;;;;;;;;;;6320685;28;20050;-79
2023/11/08 06:18:00;;;;;;;;;;;;;;;;;;6300186;28;19955;-81
2023/11/08 06:21:00;;;;;;;;;;;;;;;;;;6295785;28;19923;-80
2023/11/08 06:24:00;;;;;;;;;;;;;;;;;;6284674;28;19912;-80
2023/11/08 06:27:00;;;;;;;;;;;;;;;;;;6314733;28;20250;-80
2023/11/08 06:30:00;;;;;;;;;;;;;;;;;;6297101;28;19919;-80
2023/11/08 06:33:01;;;;;;;;;;;;;;;;;;6314383;28;19912;-81
2023/11/08 06:36:01;;;;;;;;;;;;;;;;;;6305865;28;20285;-80
2023/11/08 06:39:01;;;;;;;;;;;;;;;;;;6294782;28;19920;-82
2023/11/08 06:42:02;;;;;;;;;;;;;;;;;;6298617;28;19913;-80
2023/11/08 06:45:03;;;;;;;;;;;;;;;;;;6298754;28;19908;-82
2023/11/08 06:48:04;;;;;;;;;;;;;;;;;;6286909;28;19916;-79
2023/11/08 06:51:04;;;;;;;;;;;;;;;;;;6294305;28;19970;-78
2023/11/08 06:54:04;;;;;;;;;;;;;;;;;;6281829;28;19925;-80
2023/11/08 06:57:04;;;;;;;;;;;;;;;;;;6292943;28;19916;-78
2023/11/08 07:00:07;;;;;;;;;;;;;;;;;;6299114;28;19920;-79
2023/11/08 07:03:09;;;;;;;;;;;;;;;;;;6282156;28;20003;-80
2023/11/08 07:06:09;;;;;;;;;;;;;;;;;;6272728;28;19913;-78
2023/11/08 07:09:11;;;;;;;;;;;;;;;;;;6273661;28;20352;-85
2023/11/08 07:12:11;;;;;;;;;;;;;;;;;;6279029;28;19935;-82
2023/11/08 07:15:12;;;;;;;;;;;;;;;;;;6268813;28;20377;-85
2023/11/08 07:18:14;;;;;;;;;;;;;;;;;;6277519;28;19932;-86
2023/11/08 07:21:14;;;;;;;;;;;;;;;;;;6276436;28;19920;-85
2023/11/08 07:24:14;;;;;;;;;;;;;;;;;;6296323;28;19913;-84
2023/11/08 07:27:14;;;;;;;;;;;;;;;;;;6298436;28;19909;-84
2023/11/08 07:30:16;;;;;;;;;;;;;;;;;;6294852;28;19913;-83
2023/11/08 07:33:17;;;;;;;;;;;;;;;;;;6293694;28;20061;-81
2023/11/08 07:36:18;;;;;;;;;;;;;;;;;;6294734;28;19916;-82
2023/11/08 07:39:18;;;;;;;;;;;;;;;;;;6296126;28;19920;-82
2023/11/08 07:42:18;;;;;;;;;;;;;;;;;;6283274;28;20429;-84
2023/11/08 07:45:18;;;;;;;;;;;;;;;;;;6294701;28;19921;-84
2023/11/08 07:48:19;;;;;;;;;;;;;;;;;;6293840;28;19923;-83
2023/11/08 07:51:19;;;;;;;;;;;;;;;;;;6291886;28;19974;-83
2023/11/08 07:54:19;;;;;;;;;;;;;;;;;;6294709;28;19959;-83
2023/11/08 07:57:19;;;;;;;;;;;;;;;;;;6289731;28;19970;-82
2023/11/08 08:00:22;;;;;;;;;;;;;;;;;;6304135;28;20384;-83
2023/11/08 08:03:22;;;;;;;;;;;;;;;;;;6284336;28;19924;-83
2023/11/08 08:06:22;;;;;;;;;;;;;;;;;;6296573;28;20001;-84
2023/11/08 08:09:24;;;;;;;;;;;;;;;;;;6280498;28;20080;-85
2023/11/08 08:12:24;;;;;;;;;;;;;;;;;;6294215;28;19943;-83
2023/11/08 08:15:25;;;;;;;;;;;;;;;;;;6306487;28;19919;-83
2023/11/08 08:18:25;;;;;;;;;;;;;;;;;;6279482;28;19920;-83
2023/11/08 08:21:25;;;;;;;;;;;;;;;;;;6309473;28;19966;-84
2023/11/08 08:24:25;;;;;;;;;;;;;;;;;;6284632;28;19913;-84
2023/11/08 08:27:25;;;;;;;;;;;;;;;;;;6272549;28;19920;-83
2023/11/08 08:30:25;;;;;;;;;;;;;;;;;;6289567;28;19912;-83
2023/11/08 08:33:25;;;;;;;;;;;;;;;;;;6310811;28;19924;-84
2023/11/08 08:36:28;;;;;;;;;;;;;;;;;;6279174;28;20439;-87
2023/11/08 08:39:28;;;;;;;;;;;;;;;;;;6280766;28;19921;-84
2023/11/08 08:42:28;;;;;;;;;;;;;;;;;;6283548;28;19967;-84
2023/11/08 08:45:29;;;;;;;;;;;;;;;;;;6297309;28;20007;-84
2023/11/08 08:48:29;;;;;;;;;;;;;;;;;;6309464;28;19917;-85
2023/11/08 08:51:30;;;;;;;;;;;;;;;;;;6294201;28;19959;-84
2023/11/08 08:54:30;;;;;;;;;;;;;;;;;;6294352;28;19928;-85
2023/11/08 08:57:31;;;;;;;;;;;;;;;;;;6294295;28;19916;-83
2023/11/08 09:00:31;;;;;;;;;;;;;;;;;;6297296;28;19955;-84
2023/11/08 09:03:31;;;;;;;;;;;;;;;;;;6295377;28;19917;-78
2023/11/08 09:06:31;;;;;;;;;;;;;;;;;;6279112;28;19923;-77
2023/11/08 09:09:32;;;;;;;;;;;;;;;;;;6277199;28;20354;-78
2023/11/08 09:12:32;;;;;;;;;;;;;;;;;;6309142;28;19962;-78
2023/11/08 09:15:32;;;;;;;;;;;;;;;;;;6303182;28;19917;-81
2023/11/08 09:18:32;;;;;;;;;;;;;;;;;;6303121;28;19908;-85
2023/11/08 09:21:33;;;;;;;;;;;;;;;;;;6286633;28;19917;-80
2023/11/08 09:24:33;;;;;;;;;;;;;;;;;;6277352;28;19966;-81
2023/11/08 09:27:33;;;;;;;;;;;;;;;;;;6291965;28;20284;-80
2023/11/08 09:30:34;;;;;;;;;;;;;;;;;;6289675;28;19912;-78
2023/11/08 09:33:35;;;;;;;;;;;;;;;;;;6288688;28;20384;-78
2023/11/08 09:36:36;;;;;;;;;;;;;;;;;;6293133;28;20010;-78
2023/11/08 09:39:36;;;;;;;;;;;;;;;;;;6293475;28;20362;-78
2023/11/08 09:42:37;;;;;;;;;;;;;;;;;;6297718;28;19959;-78
2023/11/08 09:45:37;;;;;;;;;;;;;;;;;;6287163;28;19955;-77
2023/11/08 09:48:37;;;;;;;;;;;;;;;;;;6285430;28;20357;-77
2023/11/08 09:51:38;;;;;;;;;;;;;;;;;;6276468;28;19908;-79
2023/11/08 09:54:40;;;;;;;;;;;;;;;;;;6283731;28;19916;-78
2023/11/08 09:57:40;;;;;;;;;;;;;;;;;;6283109;28;19921;-78
2023/11/08 10:00:40;;;;;;;;;;;;;;;;;;6290948;28;19912;-78
2023/11/08 10:03:41;;;;;;;;;;;;;;;;;;6293065;28;19928;-78
2023/11/08 10:06:41;;;;;;;;;;;;;;;;;;6295336;28;20053;-79
2023/11/08 10:09:41;;;;;;;;;;;;;;;;;;6298595;28;19908;-78
2023/11/08 10:12:43;;;;;;;;;;;;;;;;;;6313637;28;19912;-78
2023/11/08 10:15:44;;;;;;;;;;;;;;;;;;6306016;28;19970;-78
2023/11/08 10:18:44;;;;;;;;;;;;;;;;;;6312709;28;19909;-78
2023/11/08 10:21:44;;;;;;;;;;;;;;;;;;6272983;28;20366;-79
2023/11/08 10:24:44;;;;;;;;;;;;;;;;;;6287064;28;19921;-78
2023/11/08 10:27:44;;;;;;;;;;;;;;;;;;6298487;28;19912;-79
2023/11/08 10:30:44;;;;;;;;;;;;;;;;;;6305495;28;20269;-78
2023/11/08 10:33:45;;;;;;;;;;;;;;;;;;6289884;28;19916;-78
2023/11/08 10:36:45;;;;;;;;;;;;;;;;;;6311694;28;19939;-78
2023/11/08 10:39:45;;;;;;;;;;;;;;;;;;6298846;28;20309;-81
2023/11/08 10:42:45;;;;;;;;;;;;;;;;;;6277341;28;19932;-81
2023/11/08 10:45:45;;;;;;;;;;;;;;;;;;6288523;28;20277;-81
2023/11/08 10:48:45;;;;;;;;;;;;;;;;;;6302476;28;19920;-81
2023/11/08 10:51:46;;;;;;;;;;;;;;;;;;6280562;28;19913;-81
2023/11/08 10:54:47;;;;;;;;;;;;;;;;;;6292772;28;19917;-81
2023/11/08 10:57:49;;;;;;;;;;;;;;;;;;6298841;28;19998;-81
2023/11/08 11:00:49;;;;;;;;;;;;;;;;;;6288377;28;20396;-81
2023/11/08 11:03:49;;;;;;;;;;;;;;;;;;6296147;28;19916;-81
2023/11/08 11:06:49;;;;;;;;;;;;;;;;;;6292410;28;19915;-80
2023/11/08 11:09:49;;;;;;;;;;;;;;;;;;6295719;28;19943;-81
2023/11/08 11:12:49;;;;;;;;;;;;;;;;;;6307381;28;20011;-80
2023/11/08 11:15:51;;;;;;;;;;;;;;;;;;6297941;28;19917;-81
2023/11/08 11:18:51;;;;;;;;;;;;;;;;;;6300184;28;19969;-80
2023/11/08 11:21:51;;;;;;;;;;;;;;;;;;6302876;28;20319;-82
2023/11/08 11:24:53;;;;;;;;;;;;;;;;;;6273719;28;19909;-80
2023/11/08 11:27:53;;;;;;;;;;;;;;;;;;6277226;28;19916;-81
2023/11/08 11:30:53;;;;;;;;;;;;;;;;;;6293563;28;20435;-81
2023/11/08 11:33:54;;;;;;;;;;;;;;;;;;6282696;28;20321;-83
2023/11/08 11:36:54;;;;;;;;;;;;;;;;;;6296795;28;20372;-81
2023/11/08 11:39:54;;;;;;;;;;;;;;;;;;6292849;28;19928;-81
2023/11/08 11:42:55;;;;;;;;;;;;;;;;;;6293270;28;19995;-81
2023/11/08 11:45:55;;;;;;;;;;;;;;;;;;6292244;28;20003;-81
2023/11/08 11:48:55;;;;;;;;;;;;;;;;;;6284657;28;19916;-80
2023/11/08 11:51:55;;;;;;;;;;;;;;;;;;6300344;28;20296;-78
2023/11/08 11:54:58;;;;;;;;;;;;;;;;;;6295814;28;19923;-79
2023/11/08 11:57:58;;;;;;;;;;;;;;;;;;6296296;28;19957;-80
2023/11/08 12:00:58;;;;;;;;;;;;;;;;;;6291877;28;24210;-79
2023/11/08 12:03:58;;;;;;;;;;;;;;;;;;6294832;28;19923;-78
2023/11/08 12:06:59;;;;;;;;;;;;;;;;;;6297649;28;19916;-78
2023/11/08 12:09:59;;;;;;;;;;;;;;;;;;6297897;28;19908;-78
2023/11/08 12:12:59;;;;;;;;;;;;;;;;;;6296432;28;19920;-79
2023/11/08 12:16:00;;;;;;;;;;;;;;;;;;6297414;28;19916;-78
2023/11/08 12:19:00;;;;;;;;;;;;;;;;;;6302499;28;20388;-79
2023/11/08 12:22:00;;;;;;;;;;;;;;;;;;6297171;28;19920;-79
2023/11/08 12:25:00;;;;;;;;;;;;;;;;;;6297177;28;19919;-79
2023/11/08 12:28:00;;;;;;;;;;;;;;;;;;6297294;28;19912;-79
2023/11/08 12:31:00;;;;;;;;;;;;;;;;;;6296249;28;19913;-79
2023/11/08 12:34:00;;;;;;;;;;;;;;;;;;6297160;28;19920;-79
2023/11/08 12:37:01;;;;;;;;;;;;;;;;;;6294905;28;19916;-78
2023/11/08 12:40:02;;;;;;;;;;;;;;;;;;6310676;28;19928;-78
2023/11/08 12:43:02;;;;;;;;;;;;;;;;;;6291151;28;20369;-79
2023/11/08 12:46:03;;;;;;;;;;;;;;;;;;6287556;28;19920;-79
2023/11/08 12:49:03;;;;;;;;;;;;;;;;;;6298087;28;19955;-81
2023/11/08 12:52:03;;;;;;;;;;;;;;;;;;6280793;28;20279;-81
2023/11/08 12:55:03;;;;;;;;;;;;;;;;;;6296331;28;19912;-79
2023/11/08 12:58:03;;;;;;;;;;;;;;;;;;6280440;28;19913;-79
2023/11/08 13:01:04;;;;;;;;;;;;;;;;;;6270385;28;20444;-81
2023/11/08 13:04:05;;;;;;;;;;;;;;;;;;6298684;28;19916;-79
2023/11/08 13:07:05;;;;;;;;;;;;;;;;;;6315565;28;20329;-79
2023/11/08 13:10:05;;;;;;;;;;;;;;;;;;6301624;28;19913;-80
2023/11/08 13:13:05;;;;;;;;;;;;;;;;;;6301389;28;19919;-79
2023/11/08 13:16:06;;;;;;;;;;;;;;;;;;6301694;28;19970;-79
2023/11/08 13:19:06;;;;;;;;;;;;;;;;;;6300620;28;19952;-79
2023/11/08 13:22:06;;;;;;;;;;;;;;;;;;6287297;28;19947;-79
2023/11/08 13:25:07;;;;;;;;;;;;;;;;;;6301094;28;19916;-79
2023/11/08 13:28:08;;;;;;;;;;;;;;;;;;6301621;28;19919;-79
2023/11/08 13:31:08;;;;;;;;;;;;;;;;;;6301269;28;19908;-79
2023/11/08 13:34:08;;;;;;;;;;;;;;;;;;6300647;28;19916;-79
2023/11/08 13:37:08;;;;;;;;;;;;;;;;;;6296943;28;19975;-79
2023/11/08 13:40:08;;;;;;;;;;;;;;;;;;6286402;28;19920;-79
2023/11/08 13:43:08;;;;;;;;;;;;;;;;;;6298202;28;20281;-78
2023/11/08 13:46:09;;;;;;;;;;;;;;;;;;6296374;28;20368;-79
2023/11/08 13:49:11;;;;;;;;;;;;;;;;;;6299914;28;19961;-79
2023/11/08 13:52:11;;;;;;;;;;;;;;;;;;6282422;28;19912;-79
2023/11/08 13:55:12;;;;;;;;;;;;;;;;;;6299348;28;19970;-78
2023/11/08 13:58:12;;;;;;;;;;;;;;;;;;6300035;28;19924;-78
2023/11/08 14:01:15;;;;;;;;;;;;;;;;;;6300754;28;20292;-79
2023/11/08 14:04:16;;;;;;;;;;;;;;;;;;6298494;28;19920;-82
2023/11/08 14:07:16;;;;;;;;;;;;;;;;;;6299874;28;19915;-80
2023/11/08 14:10:16;;;;;;;;;;;;;;;;;;6300185;28;19908;-78
2023/11/08 14:13:16;;;;;;;;;;;;;;;;;;6278437;28;19921;-77
2023/11/08 14:16:16;;;;;;;;;;;;;;;;;;6274846;28;19913;-79
2023/11/08 14:19:16;;;;;;;;;;;;;;;;;;6288019;28;19919;-82
2023/11/08 14:22:17;;;;;;;;;;;;;;;;;;6300967;28;19909;-82
2023/11/08 14:25:18;;;;;;;;;;;;;;;;;;6299900;28;19908;-82
2023/11/08 14:28:18;;;;;;;;;;;;;;;;;;6298918;28;19909;-83
2023/11/08 14:31:18;;;;;;;;;;;;;;;;;;6312013;28;20284;-81
2023/11/08 14:34:18;;;;;;;;;;;;;;;;;;6298720;28;20014;-82
2023/11/08 14:37:18;;;;;;;;;;;;;;;;;;6287279;28;19916;-81
2023/11/08 14:40:19;;;;;;;;;;;;;;;;;;6302421;28;20008;-81
2023/11/08 14:43:20;;;;;;;;;;;;;;;;;;6319248;28;20273;-82
2023/11/08 14:46:20;;;;;;;;;;;;;;;;;;6297940;28;20261;-81
2023/11/08 14:49:20;;;;;;;;;;;;;;;;;;6302087;28;19920;-82
2023/11/08 14:52:20;;;;;;;;;;;;;;;;;;6288230;28;20116;-81
2023/11/08 14:55:20;;;;;;;;;;;;;;;;;;6286885;28;19920;-82
2023/11/08 14:58:21;;;;;;;;;;;;;;;;;;6277573;28;19920;-82
2023/11/08 15:01:21;;;;;;;;;;;;;;;;;;6282380;28;19993;-81
2023/11/08 15:04:22;;;;;;;;;;;;;;;;;;6292998;28;20389;-83
2023/11/08 15:07:22;;;;;;;;;;;;;;;;;;6295812;28;20429;-82
2023/11/08 15:10:22;;;;;;;;;;;;;;;;;;6297541;28;19943;-79
2023/11/08 15:13:23;;;;;;;;;;;;;;;;;;6297297;28;20324;-79
2023/11/08 15:16:24;;;;;;;;;;;;;;;;;;6292875;28;19979;-79
2023/11/08 15:19:25;;;;;;;;;;;;;;;;;;6282382;28;20365;-79
2023/11/08 15:22:25;;;;;;;;;;;;;;;;;;6292399;28;19908;-79
2023/11/08 15:25:25;;;;;;;;;;;;;;;;;;6293001;28;19913;-79
2023/11/08 15:28:26;;;;;;;;;;;;;;;;;;6302778;28;19963;-81
2023/11/08 15:31:30;;;;;;;;;;;;;;;;;;6336125;28;20289;-81
2023/11/08 15:34:30;;;;;;;;;;;;;;;;;;6292487;28;19916;-83
2023/11/08 15:37:30;;;;;;;;;;;;;;;;;;6287894;28;20818;-81
2023/11/08 15:40:30;;;;;;;;;;;;;;;;;;6285307;28;19978;-82
2023/11/08 15:43:30;;;;;;;;;;;;;;;;;;6293444;28;19920;-81
2023/11/08 15:46:31;;;;;;;;;;;;;;;;;;6283633;28;19915;-82
2023/11/08 15:49:32;;;;;;;;;;;;;;;;;;6271728;28;20339;-82
2023/11/08 15:52:34;;;;;;;;;;;;;;;;;;6294483;28;20000;-82
2023/11/08 15:55:35;;;;;;;;;;;;;;;;;;6295123;28;19917;-82
2023/11/08 15:58:36;;;;;;;;;;;;;;;;;;6295727;28;20315;-82
2023/11/08 16:01:36;;;;;;;;;;;;;;;;;;6298132;28;19917;-82
2023/11/08 16:04:37;;;;;;;;;;;;;;;;;;6293278;28;19920;-82
2023/11/08 16:07:38;;;;;;;;;;;;;;;;;;6292931;28;20028;-83
2023/11/08 16:10:38;;;;;;;;;;;;;;;;;;6285368;28;19920;-82
2023/11/08 16:13:38;;;;;;;;;;;;;;;;;;6293887;28;19916;-82
2023/11/08 16:16:39;;;;;;;;;;;;;;;;;;6285344;28;19916;-83
2023/11/08 16:19:40;;;;;;;;;;;;;;;;;;6288147;28;19938;-83
2023/11/08 16:22:40;;;;;;;;;;;;;;;;;;6285413;28;20127;-82
2023/11/08 16:25:40;;;;;;;;;;;;;;;;;;6296059;28;20261;-84
2023/11/08 16:28:43;;;;;;;;;;;;;;;;;;6290891;28;19974;-82
2023/11/08 16:31:43;;;;;;;;;;;;;;;;;;6292959;28;20434;-84
2023/11/08 16:34:46;;;;;;;;;;;;;;;;;;6294423;28;19920;-83
2023/11/08 16:37:46;;;;;;;;;;;;;;;;;;6293614;28;19970;-82
2023/11/08 16:40:46;;;;;;;;;;;;;;;;;;6297080;28;19912;-78
2023/11/08 16:43:47;;;;;;;;;;;;;;;;;;6287795;28;19920;-78
2023/11/08 16:46:47;;;;;;;;;;;;;;;;;;6292625;28;19917;-77
2023/11/08 16:49:50;;;;;;;;;;;;;;;;;;6296817;28;19913;-78
2023/11/08 16:52:50;;;;;;;;;;;;;;;;;;6300116;28;19912;-78
2023/11/08 16:55:51;;;;;;;;;;;;;;;;;;6318887;28;20063;-79
2023/11/08 16:58:59;;;;;;;;;;;;;;;;;;6305837;28;19919;-78
2023/11/08 17:01:59;;;;;;;;;;;;;;;;;;6307671;28;20369;-79
2023/11/08 17:04:59;;;;;;;;;;;;;;;;;;6304227;28;19909;-78
2023/11/08 17:08:03;;;;;;;;;;;;;;;;;;6303634;28;19924;-78
2023/11/08 17:11:03;;;;;;;;;;;;;;;;;;6299025;28;20345;-79
2023/11/08 17:14:03;;;;;;;;;;;;;;;;;;6297680;28;19932;-79
2023/11/08 17:17:03;;;;;;;;;;;;;;;;;;6303597;28;19962;-79
2023/11/08 17:20:05;;;;;;;;;;;;;;;;;;6290679;28;19923;-78
2023/11/08 17:23:05;;;;;;;;;;;;;;;;;;6294173;28;19912;-81
2023/11/08 17:26:05;;;;;;;;;;;;;;;;;;6301817;28;20328;-79
2023/11/08 17:29:05;;;;;;;;;;;;;;;;;;6302034;28;19955;-78
2023/11/08 17:32:05;;;;;;;;;;;;;;;;;;6299359;28;20007;-78
2023/11/08 17:35:05;;;;;;;;;;;;;;;;;;6295978;28;20066;-79
2023/11/08 17:38:06;;;;;;;;;;;;;;;;;;6315573;28;20003;-78
2023/11/08 17:41:06;;;;;;;;;;;;;;;;;;6316322;28;20388;-78
2023/11/08 17:44:07;;;;;;;;;;;;;;;;;;6303430;28;19912;-79
2023/11/08 17:47:07;;;;;;;;;;;;;;;;;;6317461;28;19920;-80
2023/11/08 17:50:07;;;;;;;;;;;;;;;;;;6297925;28;19939;-83
2023/11/08 17:53:09;;;;;;;;;;;;;;;;;;6287361;28;20015;-83
2023/11/08 17:56:11;;;;;;;;;;;;;;;;;;6297881;28;20292;-83
2023/11/08 17:59:11;;;;;;;;;;;;;;;;;;6295900;28;20316;-82
2023/11/08 18:02:11;;;;;;;;;;;;;;;;;;6288873;28;19924;-83
2023/11/08 18:05:12;;;;;;;;;;;;;;;;;;6299421;28;20003;-83
2023/11/08 18:08:12;;;;;;;;;;;;;;;;;;6297393;28;19909;-82
2023/11/08 18:11:12;;;;;;;;;;;;;;;;;;6275059;28;19916;-82
2023/11/08 18:14:13;;;;;;;;;;;;;;;;;;6273903;28;19971;-83
2023/11/08 18:17:13;;;;;;;;;;;;;;;;;;6279497;28;19917;-82
2023/11/08 18:20:13;;;;;;;;;;;;;;;;;;6279813;28;19924;-82
2023/11/08 18:23:14;;;;;;;;;;;;;;;;;;6285880;28;19916;-83
2023/11/08 18:26:14;;;;;;;;;;;;;;;;;;6277092;28;19915;-82
2023/11/08 18:29:14;;;;;;;;;;;;;;;;;;6274227;28;19971;-83
2023/11/08 18:32:14;;;;;;;;;;;;;;;;;;6277417;28;20003;-82
2023/11/08 18:35:14;;;;;;;;;;;;;;;;;;6277201;28;19916;-80
2023/11/08 18:38:14;;;;;;;;;;;;;;;;;;6292357;28;20417;-82
2023/11/08 18:41:14;;;;;;;;;;;;;;;;;;6276819;28;19916;-79
2023/11/08 18:44:14;;;;;;;;;;;;;;;;;;6274604;28;19916;-79
2023/11/08 18:47:15;;;;;;;;;;;;;;;;;;6280531;28;19974;-79
2023/11/08 18:50:15;;;;;;;;;;;;;;;;;;6279864;28;20361;-81
2023/11/08 18:53:20;;;;;;;;;;;;;;;;;;6278539;28;19932;-80
2023/11/08 18:56:21;;;;;;;;;;;;;;;;;;6282264;28;20358;-83
2023/11/08 18:59:22;;;;;;;;;;;;;;;;;;6291713;28;19941;-92
2023/11/08 19:02:22;;;;;;;;;;;;;;;;;;6292916;28;20015;-91
2023/11/08 19:05:22;;;;;;;;;;;;;;;;;;6294063;28;19916;-90
2023/11/08 19:08:23;;;;;;;;;;;;;;;;;;6297290;28;19963;-93
2023/11/08 19:11:23;;;;;;;;;;;;;;;;;;6277162;28;20048;-90
2023/11/08 19:14:23;;;;;;;;;;;;;;;;;;6279671;28;21281;-91
2023/11/08 19:17:24;;;;;;;;;;;;;;;;;;6278344;28;20011;-92
2023/11/08 19:20:24;;;;;;;;;;;;;;;;;;6294480;28;20343;-92
2023/11/08 19:23:26;;;;;;;;;;;;;;;;;;6277705;28;19919;-92
2023/11/08 19:26:26;;;;;;;;;;;;;;;;;;6277537;28;19913;-92
2023/11/08 19:29:26;;;;;;;;;;;;;;;;;;6287633;28;19940;-92
2023/11/08 19:32:27;;;;;;;;;;;;;;;;;;6300263;28;19916;-91
2023/11/08 19:35:27;;;;;;;;;;;;;;;;;;6285709;28;19985;-93
2023/11/08 19:38:27;;;;;;;;;;;;;;;;;;6294834;28;19976;-92
2023/11/08 19:41:27;;;;;;;;;;;;;;;;;;6296282;28;20412;-93
2023/11/08 19:44:29;;;;;;;;;;;;;;;;;;6280332;28;20315;-92
2023/11/08 19:47:29;;;;;;;;;;;;;;;;;;6282823;28;19919;-92
2023/11/08 19:50:30;;;;;;;;;;;;;;;;;;6302490;28;19912;-92
2023/11/08 19:53:30;;;;;;;;;;;;;;;;;;6304796;28;20211;-91
2023/11/08 19:56:32;;;;;;;;;;;;;;;;;;6273551;28;20289;-91
2023/11/08 19:59:32;;;;;;;;;;;;;;;;;;6276601;28;19921;-92
2023/11/08 20:02:32;;;;;;;;;;;;;;;;;;6296302;28;19920;-92
2023/11/08 20:05:32;;;;;;;;;;;;;;;;;;6295492;28;19912;-91
2023/11/08 20:08:32;;;;;;;;;;;;;;;;;;6306134;28;19916;-92
2023/11/08 20:11:33;;;;;;;;;;;;;;;;;;6316770;28;20254;-92
2023/11/08 20:14:33;;;;;;;;;;;;;;;;;;6300503;28;19917;-92
2023/11/08 20:17:33;;;;;;;;;;;;;;;;;;6282240;28;19909;-92
2023/11/08 20:20:33;;;;;;;;;;;;;;;;;;6300012;28;19908;-92
2023/11/08 20:23:34;;;;;;;;;;;;;;;;;;5936217;28;10000351;-92
2023/11/08 20:26:34;;;;;;;;;;;;;;;;;;6276034;28;20090;-92
2023/11/08 20:29:35;;;;;;;;;;;;;;;;;;6273333;28;20040;-93
2023/11/08 20:32:39;;;;;;;;;;;;;;;;;;6276757;28;19924;-92